sensor_id;sensor_type;location;lat;lon;timestamp;P1;durP1;ratioP1;P2;durP2;ratioP2
46318;SDS011;32042;50.916;2.926;2024-02-21T00:00:55;4.33;;;2.63;;
46318;SDS011;32042;50.916;2.926;2024-02-21T00:03:21;3.30;;;2.40;;
46318;SDS011;32042;50.916;2.926;2024-02-21T00:05:47;3.60;;;2.70;;
46318;SDS011;32042;50.916;2.926;2024-02-21T00:08:14;5.17;;;2.47;;
46318;SDS011;32042;50.916;2.926;2024-02-21T00:10:39;3.67;;;2.57;;
46318;SDS011;32042;50.916;2.926;2024-02-21T00:13:05;3.80;;;2.20;;
46318;SDS011;32042;50.916;2.926;2024-02-21T00:15:31;3.73;;;2.93;;
46318;SDS011;32042;50.916;2.926;2024-02-21T00:17:56;3.37;;;2.80;;
46318;SDS011;32042;50.916;2.926;2024-02-21T00:20:22;3.63;;;2.47;;
46318;SDS011;32042;50.916;2.926;2024-02-21T00:22:48;3.43;;;2.40;;
46318;SDS011;32042;50.916;2.926;2024-02-21T00:25:13;3.50;;;2.80;;
46318;SDS011;32042;50.916;2.926;2024-02-21T00:27:39;4.77;;;2.83;;
46318;SDS011;32042;50.916;2.926;2024-02-21T00:30:05;4.57;;;2.43;;
46318;SDS011;32042;50.916;2.926;2024-02-21T00:32:31;4.03;;;3.13;;
46318;SDS011;32042;50.916;2.926;2024-02-21T00:35:00;3.70;;;3.20;;
46318;SDS011;32042;50.916;2.926;2024-02-21T00:37:26;5.47;;;3.50;;
46318;SDS011;32042;50.916;2.926;2024-02-21T00:39:53;3.77;;;3.10;;
46318;SDS011;32042;50.916;2.926;2024-02-21T00:42:19;4.10;;;3.37;;
46318;SDS011;32042;50.916;2.926;2024-02-21T00:44:46;5.63;;;3.23;;
46318;SDS011;32042;50.916;2.926;2024-02-21T00:47:12;3.70;;;3.33;;
46318;SDS011;32042;50.916;2.926;2024-02-21T00:49:37;4.27;;;3.53;;
46318;SDS011;32042;50.916;2.926;2024-02-21T00:52:03;4.50;;;3.00;;
46318;SDS011;32042;50.916;2.926;2024-02-21T00:54:29;7.43;;;3.47;;
46318;SDS011;32042;50.916;2.926;2024-02-21T00:56:54;5.10;;;3.70;;
46318;SDS011;32042;50.916;2.926;2024-02-21T00:59:20;3.97;;;3.57;;
46318;SDS011;32042;50.916;2.926;2024-02-21T01:01:46;6.13;;;3.47;;
46318;SDS011;32042;50.916;2.926;2024-02-21T01:04:11;8.33;;;3.83;;
46318;SDS011;32042;50.916;2.926;2024-02-21T01:06:37;4.53;;;3.67;;
46318;SDS011;32042;50.916;2.926;2024-02-21T01:09:05;6.63;;;4.33;;
46318;SDS011;32042;50.916;2.926;2024-02-21T01:11:30;6.77;;;4.43;;
46318;SDS011;32042;50.916;2.926;2024-02-21T01:13:56;9.40;;;4.57;;
46318;SDS011;32042;50.916;2.926;2024-02-21T01:16:22;6.67;;;4.83;;
46318;SDS011;32042;50.916;2.926;2024-02-21T01:18:48;10.70;;;5.20;;
46318;SDS011;32042;50.916;2.926;2024-02-21T01:21:14;6.27;;;4.47;;
46318;SDS011;32042;50.916;2.926;2024-02-21T01:23:39;7.70;;;4.90;;
46318;SDS011;32042;50.916;2.926;2024-02-21T01:26:05;7.67;;;5.03;;
46318;SDS011;32042;50.916;2.926;2024-02-21T01:28:33;5.87;;;5.17;;
46318;SDS011;32042;50.916;2.926;2024-02-21T01:31:00;8.13;;;5.20;;
46318;SDS011;32042;50.916;2.926;2024-02-21T01:33:26;8.73;;;5.33;;
46318;SDS011;32042;50.916;2.926;2024-02-21T01:35:52;9.17;;;5.67;;
46318;SDS011;32042;50.916;2.926;2024-02-21T01:38:18;7.40;;;5.60;;
46318;SDS011;32042;50.916;2.926;2024-02-21T01:40:43;10.00;;;5.50;;
46318;SDS011;32042;50.916;2.926;2024-02-21T01:43:16;6.23;;;5.60;;
46318;SDS011;32042;50.916;2.926;2024-02-21T01:45:43;8.03;;;4.87;;
46318;SDS011;32042;50.916;2.926;2024-02-21T01:48:11;7.83;;;5.57;;
46318;SDS011;32042;50.916;2.926;2024-02-21T01:50:38;12.23;;;6.63;;
46318;SDS011;32042;50.916;2.926;2024-02-21T01:53:04;8.13;;;5.40;;
46318;SDS011;32042;50.916;2.926;2024-02-21T01:55:30;6.43;;;5.80;;
46318;SDS011;32042;50.916;2.926;2024-02-21T01:57:56;10.33;;;5.77;;
46318;SDS011;32042;50.916;2.926;2024-02-21T02:00:22;9.50;;;5.87;;
46318;SDS011;32042;50.916;2.926;2024-02-21T02:02:48;8.03;;;5.40;;
46318;SDS011;32042;50.916;2.926;2024-02-21T02:05:15;9.37;;;5.83;;
46318;SDS011;32042;50.916;2.926;2024-02-21T02:07:46;11.43;;;6.00;;
46318;SDS011;32042;50.916;2.926;2024-02-21T02:10:11;8.47;;;6.40;;
46318;SDS011;32042;50.916;2.926;2024-02-21T02:12:37;8.30;;;6.30;;
46318;SDS011;32042;50.916;2.926;2024-02-21T02:15:03;6.93;;;5.73;;
46318;SDS011;32042;50.916;2.926;2024-02-21T02:17:32;8.37;;;6.00;;
46318;SDS011;32042;50.916;2.926;2024-02-21T02:19:57;10.30;;;5.53;;
46318;SDS011;32042;50.916;2.926;2024-02-21T02:22:25;8.80;;;6.10;;
46318;SDS011;32042;50.916;2.926;2024-02-21T02:24:54;7.07;;;5.97;;
46318;SDS011;32042;50.916;2.926;2024-02-21T02:27:20;7.23;;;6.13;;
46318;SDS011;32042;50.916;2.926;2024-02-21T02:29:48;8.97;;;5.77;;
46318;SDS011;32042;50.916;2.926;2024-02-21T02:32:13;8.23;;;6.10;;
46318;SDS011;32042;50.916;2.926;2024-02-21T02:34:39;6.43;;;5.77;;
46318;SDS011;32042;50.916;2.926;2024-02-21T02:37:05;10.60;;;6.37;;
46318;SDS011;32042;50.916;2.926;2024-02-21T02:39:30;9.60;;;6.53;;
46318;SDS011;32042;50.916;2.926;2024-02-21T02:41:56;11.93;;;7.10;;
46318;SDS011;32042;50.916;2.926;2024-02-21T02:44:22;11.27;;;6.60;;
46318;SDS011;32042;50.916;2.926;2024-02-21T02:46:47;13.03;;;7.23;;
46318;SDS011;32042;50.916;2.926;2024-02-21T02:49:13;11.30;;;7.50;;
46318;SDS011;32042;50.916;2.926;2024-02-21T02:51:42;10.50;;;8.00;;
46318;SDS011;32042;50.916;2.926;2024-02-21T02:54:11;12.70;;;7.83;;
46318;SDS011;32042;50.916;2.926;2024-02-21T02:56:37;12.03;;;7.60;;
46318;SDS011;32042;50.916;2.926;2024-02-21T02:59:02;14.13;;;7.77;;
46318;SDS011;32042;50.916;2.926;2024-02-21T03:01:28;15.07;;;8.33;;
46318;SDS011;32042;50.916;2.926;2024-02-21T03:03:54;12.23;;;8.07;;
46318;SDS011;32042;50.916;2.926;2024-02-21T03:06:20;14.27;;;7.70;;
46318;SDS011;32042;50.916;2.926;2024-02-21T03:08:47;16.70;;;8.33;;
46318;SDS011;32042;50.916;2.926;2024-02-21T03:11:13;14.67;;;8.33;;
46318;SDS011;32042;50.916;2.926;2024-02-21T03:13:39;13.70;;;8.57;;
46318;SDS011;32042;50.916;2.926;2024-02-21T03:16:05;13.77;;;8.27;;
46318;SDS011;32042;50.916;2.926;2024-02-21T03:18:31;16.87;;;8.37;;
46318;SDS011;32042;50.916;2.926;2024-02-21T03:20:57;19.20;;;8.17;;
46318;SDS011;32042;50.916;2.926;2024-02-21T03:23:23;22.93;;;8.00;;
46318;SDS011;32042;50.916;2.926;2024-02-21T03:25:48;14.90;;;8.63;;
46318;SDS011;32042;50.916;2.926;2024-02-21T03:28:14;16.03;;;7.77;;
46318;SDS011;32042;50.916;2.926;2024-02-21T03:30:41;11.67;;;7.23;;
46318;SDS011;32042;50.916;2.926;2024-02-21T03:33:06;14.07;;;8.00;;
46318;SDS011;32042;50.916;2.926;2024-02-21T03:35:32;10.80;;;7.67;;
46318;SDS011;32042;50.916;2.926;2024-02-21T03:37:57;13.67;;;7.50;;
46318;SDS011;32042;50.916;2.926;2024-02-21T03:40:23;14.47;;;8.37;;
46318;SDS011;32042;50.916;2.926;2024-02-21T03:42:49;17.90;;;8.30;;
46318;SDS011;32042;50.916;2.926;2024-02-21T03:45:14;12.07;;;7.57;;
46318;SDS011;32042;50.916;2.926;2024-02-21T03:47:40;10.73;;;8.03;;
46318;SDS011;32042;50.916;2.926;2024-02-21T03:50:06;16.43;;;8.53;;
46318;SDS011;32042;50.916;2.926;2024-02-21T03:52:32;10.90;;;7.97;;
46318;SDS011;32042;50.916;2.926;2024-02-21T03:54:58;22.37;;;8.73;;
46318;SDS011;32042;50.916;2.926;2024-02-21T03:57:23;19.40;;;7.90;;
46318;SDS011;32042;50.916;2.926;2024-02-21T03:59:50;11.83;;;7.87;;
46318;SDS011;32042;50.916;2.926;2024-02-21T04:02:17;15.10;;;7.43;;
46318;SDS011;32042;50.916;2.926;2024-02-21T04:04:43;14.23;;;7.07;;
46318;SDS011;32042;50.916;2.926;2024-02-21T04:07:12;14.53;;;7.80;;
46318;SDS011;32042;50.916;2.926;2024-02-21T04:09:40;14.90;;;7.93;;
46318;SDS011;32042;50.916;2.926;2024-02-21T04:12:07;14.63;;;7.67;;
46318;SDS011;32042;50.916;2.926;2024-02-21T04:14:34;12.13;;;7.40;;
46318;SDS011;32042;50.916;2.926;2024-02-21T04:17:00;16.13;;;8.80;;
46318;SDS011;32042;50.916;2.926;2024-02-21T04:19:25;16.97;;;8.10;;
46318;SDS011;32042;50.916;2.926;2024-02-21T04:21:51;11.37;;;7.77;;
46318;SDS011;32042;50.916;2.926;2024-02-21T04:24:17;13.20;;;7.57;;
46318;SDS011;32042;50.916;2.926;2024-02-21T04:26:43;19.43;;;7.73;;
46318;SDS011;32042;50.916;2.926;2024-02-21T04:29:09;11.43;;;7.03;;
46318;SDS011;32042;50.916;2.926;2024-02-21T04:31:35;14.47;;;7.63;;
46318;SDS011;32042;50.916;2.926;2024-02-21T04:34:01;15.47;;;7.83;;
46318;SDS011;32042;50.916;2.926;2024-02-21T04:36:27;12.40;;;7.33;;
46318;SDS011;32042;50.916;2.926;2024-02-21T04:38:53;12.17;;;6.87;;
46318;SDS011;32042;50.916;2.926;2024-02-21T04:41:19;12.13;;;7.50;;
46318;SDS011;32042;50.916;2.926;2024-02-21T04:43:48;13.60;;;7.20;;
46318;SDS011;32042;50.916;2.926;2024-02-21T04:46:14;15.67;;;7.47;;
46318;SDS011;32042;50.916;2.926;2024-02-21T04:48:40;14.73;;;7.50;;
46318;SDS011;32042;50.916;2.926;2024-02-21T04:51:06;11.23;;;7.30;;
46318;SDS011;32042;50.916;2.926;2024-02-21T04:53:32;13.53;;;7.57;;
46318;SDS011;32042;50.916;2.926;2024-02-21T04:55:58;12.57;;;8.13;;
46318;SDS011;32042;50.916;2.926;2024-02-21T04:58:24;14.00;;;8.30;;
46318;SDS011;32042;50.916;2.926;2024-02-21T05:00:50;13.93;;;7.30;;
46318;SDS011;32042;50.916;2.926;2024-02-21T05:03:16;9.90;;;6.97;;
46318;SDS011;32042;50.916;2.926;2024-02-21T05:05:43;14.03;;;8.17;;
46318;SDS011;32042;50.916;2.926;2024-02-21T05:08:09;9.33;;;7.00;;
46318;SDS011;32042;50.916;2.926;2024-02-21T05:10:35;12.10;;;7.77;;
46318;SDS011;32042;50.916;2.926;2024-02-21T05:13:01;13.97;;;7.37;;
46318;SDS011;32042;50.916;2.926;2024-02-21T05:15:27;10.13;;;6.77;;
46318;SDS011;32042;50.916;2.926;2024-02-21T05:17:52;12.77;;;7.53;;
46318;SDS011;32042;50.916;2.926;2024-02-21T05:20:18;9.33;;;7.33;;
46318;SDS011;32042;50.916;2.926;2024-02-21T05:22:44;15.77;;;7.90;;
46318;SDS011;32042;50.916;2.926;2024-02-21T05:25:09;9.37;;;7.07;;
46318;SDS011;32042;50.916;2.926;2024-02-21T05:27:35;9.90;;;7.20;;
46318;SDS011;32042;50.916;2.926;2024-02-21T05:30:02;9.10;;;7.63;;
46318;SDS011;32042;50.916;2.926;2024-02-21T05:32:28;11.17;;;7.13;;
46318;SDS011;32042;50.916;2.926;2024-02-21T05:34:54;9.20;;;6.67;;
46318;SDS011;32042;50.916;2.926;2024-02-21T05:37:20;14.77;;;7.10;;
46318;SDS011;32042;50.916;2.926;2024-02-21T05:39:46;11.53;;;7.30;;
46318;SDS011;32042;50.916;2.926;2024-02-21T05:42:11;12.50;;;7.77;;
46318;SDS011;32042;50.916;2.926;2024-02-21T05:44:37;12.67;;;6.50;;
46318;SDS011;32042;50.916;2.926;2024-02-21T05:47:03;10.03;;;7.63;;
46318;SDS011;32042;50.916;2.926;2024-02-21T05:49:28;10.97;;;6.77;;
46318;SDS011;32042;50.916;2.926;2024-02-21T05:51:55;10.17;;;7.03;;
46318;SDS011;32042;50.916;2.926;2024-02-21T05:54:20;14.17;;;7.10;;
46318;SDS011;32042;50.916;2.926;2024-02-21T05:56:46;10.47;;;5.93;;
46318;SDS011;32042;50.916;2.926;2024-02-21T05:59:12;14.97;;;6.87;;
46318;SDS011;32042;50.916;2.926;2024-02-21T06:01:37;11.47;;;7.43;;
46318;SDS011;32042;50.916;2.926;2024-02-21T06:04:03;10.97;;;7.57;;
46318;SDS011;32042;50.916;2.926;2024-02-21T06:06:30;13.90;;;6.93;;
46318;SDS011;32042;50.916;2.926;2024-02-21T06:08:58;16.03;;;6.80;;
46318;SDS011;32042;50.916;2.926;2024-02-21T06:11:25;14.73;;;7.47;;
46318;SDS011;32042;50.916;2.926;2024-02-21T06:13:50;13.47;;;7.27;;
46318;SDS011;32042;50.916;2.926;2024-02-21T06:16:16;9.63;;;7.00;;
46318;SDS011;32042;50.916;2.926;2024-02-21T06:18:42;10.90;;;7.10;;
46318;SDS011;32042;50.916;2.926;2024-02-21T06:21:07;10.90;;;7.50;;
46318;SDS011;32042;50.916;2.926;2024-02-21T06:23:33;12.37;;;7.20;;
46318;SDS011;32042;50.916;2.926;2024-02-21T06:25:59;13.53;;;7.13;;
46318;SDS011;32042;50.916;2.926;2024-02-21T06:28:24;12.10;;;7.30;;
46318;SDS011;32042;50.916;2.926;2024-02-21T06:30:50;10.83;;;6.97;;
46318;SDS011;32042;50.916;2.926;2024-02-21T06:33:16;13.57;;;6.83;;
46318;SDS011;32042;50.916;2.926;2024-02-21T06:35:41;9.27;;;6.33;;
46318;SDS011;32042;50.916;2.926;2024-02-21T06:38:08;12.60;;;6.33;;
46318;SDS011;32042;50.916;2.926;2024-02-21T06:40:33;9.17;;;6.23;;
46318;SDS011;32042;50.916;2.926;2024-02-21T06:43:04;7.97;;;6.00;;
46318;SDS011;32042;50.916;2.926;2024-02-21T06:45:30;9.67;;;6.13;;
46318;SDS011;32042;50.916;2.926;2024-02-21T06:47:55;10.00;;;5.87;;
46318;SDS011;32042;50.916;2.926;2024-02-21T06:50:21;8.57;;;5.70;;
46318;SDS011;32042;50.916;2.926;2024-02-21T06:52:47;13.13;;;6.03;;
46318;SDS011;32042;50.916;2.926;2024-02-21T06:55:12;6.93;;;5.73;;
46318;SDS011;32042;50.916;2.926;2024-02-21T06:57:38;7.70;;;5.70;;
46318;SDS011;32042;50.916;2.926;2024-02-21T07:00:04;8.70;;;6.33;;
46318;SDS011;32042;50.916;2.926;2024-02-21T07:02:33;9.03;;;6.53;;
46318;SDS011;32042;50.916;2.926;2024-02-21T07:04:59;9.63;;;5.93;;
46318;SDS011;32042;50.916;2.926;2024-02-21T07:07:25;7.53;;;5.50;;
46318;SDS011;32042;50.916;2.926;2024-02-21T07:09:51;8.77;;;5.67;;
46318;SDS011;32042;50.916;2.926;2024-02-21T07:12:18;8.97;;;5.43;;
46318;SDS011;32042;50.916;2.926;2024-02-21T07:14:44;6.60;;;5.63;;
46318;SDS011;32042;50.916;2.926;2024-02-21T07:17:10;10.33;;;5.30;;
46318;SDS011;32042;50.916;2.926;2024-02-21T07:19:35;7.90;;;5.60;;
46318;SDS011;32042;50.916;2.926;2024-02-21T07:22:01;9.20;;;6.07;;
46318;SDS011;32042;50.916;2.926;2024-02-21T07:24:27;9.13;;;5.50;;
46318;SDS011;32042;50.916;2.926;2024-02-21T07:26:52;7.10;;;5.17;;
46318;SDS011;32042;50.916;2.926;2024-02-21T07:29:18;7.57;;;5.53;;
46318;SDS011;32042;50.916;2.926;2024-02-21T07:31:44;6.87;;;5.63;;
46318;SDS011;32042;50.916;2.926;2024-02-21T07:34:10;9.63;;;5.83;;
46318;SDS011;32042;50.916;2.926;2024-02-21T07:36:36;7.37;;;5.70;;
46318;SDS011;32042;50.916;2.926;2024-02-21T07:39:05;8.43;;;6.13;;
46318;SDS011;32042;50.916;2.926;2024-02-21T07:41:31;8.27;;;6.50;;
46318;SDS011;32042;50.916;2.926;2024-02-21T07:43:57;13.27;;;6.67;;
46318;SDS011;32042;50.916;2.926;2024-02-21T07:46:23;8.40;;;5.80;;
46318;SDS011;32042;50.916;2.926;2024-02-21T07:48:49;7.70;;;5.63;;
46318;SDS011;32042;50.916;2.926;2024-02-21T07:51:15;13.93;;;6.10;;
46318;SDS011;32042;50.916;2.926;2024-02-21T07:53:44;7.50;;;5.97;;
46318;SDS011;32042;50.916;2.926;2024-02-21T07:56:11;9.63;;;5.50;;
46318;SDS011;32042;50.916;2.926;2024-02-21T07:58:37;9.23;;;5.40;;
46318;SDS011;32042;50.916;2.926;2024-02-21T08:01:03;5.70;;;4.97;;
46318;SDS011;32042;50.916;2.926;2024-02-21T08:03:29;12.47;;;5.70;;
46318;SDS011;32042;50.916;2.926;2024-02-21T08:05:55;8.47;;;5.70;;
46318;SDS011;32042;50.916;2.926;2024-02-21T08:08:20;10.53;;;5.77;;
46318;SDS011;32042;50.916;2.926;2024-02-21T08:10:47;8.23;;;6.10;;
46318;SDS011;32042;50.916;2.926;2024-02-21T08:13:14;6.17;;;5.57;;
46318;SDS011;32042;50.916;2.926;2024-02-21T08:15:39;8.10;;;5.60;;
46318;SDS011;32042;50.916;2.926;2024-02-21T08:18:07;9.17;;;6.07;;
46318;SDS011;32042;50.916;2.926;2024-02-21T08:20:33;8.00;;;5.53;;
46318;SDS011;32042;50.916;2.926;2024-02-21T08:22:59;6.60;;;5.90;;
46318;SDS011;32042;50.916;2.926;2024-02-21T08:25:25;12.73;;;6.70;;
46318;SDS011;32042;50.916;2.926;2024-02-21T08:27:51;9.77;;;6.20;;
46318;SDS011;32042;50.916;2.926;2024-02-21T08:30:18;7.43;;;6.23;;
46318;SDS011;32042;50.916;2.926;2024-02-21T08:32:45;11.13;;;6.80;;
46318;SDS011;32042;50.916;2.926;2024-02-21T08:35:10;8.90;;;6.73;;
46318;SDS011;32042;50.916;2.926;2024-02-21T08:37:37;10.47;;;7.30;;
46318;SDS011;32042;50.916;2.926;2024-02-21T08:40:03;9.17;;;6.13;;
46318;SDS011;32042;50.916;2.926;2024-02-21T08:42:34;14.80;;;7.60;;
46318;SDS011;32042;50.916;2.926;2024-02-21T08:45:00;8.00;;;6.50;;
46318;SDS011;32042;50.916;2.926;2024-02-21T08:47:26;9.63;;;6.80;;
46318;SDS011;32042;50.916;2.926;2024-02-21T08:49:52;10.97;;;7.53;;
46318;SDS011;32042;50.916;2.926;2024-02-21T08:52:18;11.67;;;7.40;;
46318;SDS011;32042;50.916;2.926;2024-02-21T08:54:43;12.37;;;7.67;;
46318;SDS011;32042;50.916;2.926;2024-02-21T08:57:09;9.57;;;7.70;;
46318;SDS011;32042;50.916;2.926;2024-02-21T08:59:35;9.70;;;7.90;;
46318;SDS011;32042;50.916;2.926;2024-02-21T09:02:00;9.07;;;7.10;;
46318;SDS011;32042;50.916;2.926;2024-02-21T09:04:27;12.93;;;8.27;;
46318;SDS011;32042;50.916;2.926;2024-02-21T09:06:53;11.80;;;7.40;;
46318;SDS011;32042;50.916;2.926;2024-02-21T09:09:20;9.70;;;7.27;;
46318;SDS011;32042;50.916;2.926;2024-02-21T09:11:46;13.73;;;8.33;;
46318;SDS011;32042;50.916;2.926;2024-02-21T09:14:11;11.83;;;8.43;;
46318;SDS011;32042;50.916;2.926;2024-02-21T09:16:37;10.33;;;9.07;;
46318;SDS011;32042;50.916;2.926;2024-02-21T09:19:02;14.73;;;8.80;;
46318;SDS011;32042;50.916;2.926;2024-02-21T09:21:29;11.47;;;8.10;;
46318;SDS011;32042;50.916;2.926;2024-02-21T09:23:54;9.27;;;8.40;;
46318;SDS011;32042;50.916;2.926;2024-02-21T09:26:20;14.40;;;9.53;;
46318;SDS011;32042;50.916;2.926;2024-02-21T09:28:46;12.37;;;8.37;;
46318;SDS011;32042;50.916;2.926;2024-02-21T09:31:12;9.93;;;8.17;;
46318;SDS011;32042;50.916;2.926;2024-02-21T09:33:37;10.20;;;7.90;;
46318;SDS011;32042;50.916;2.926;2024-02-21T09:36:04;15.03;;;9.10;;
46318;SDS011;32042;50.916;2.926;2024-02-21T09:38:32;12.43;;;9.93;;
46318;SDS011;32042;50.916;2.926;2024-02-21T09:40:59;11.03;;;7.80;;
46318;SDS011;32042;50.916;2.926;2024-02-21T09:43:45;9.23;;;7.77;;
46318;SDS011;32042;50.916;2.926;2024-02-21T09:46:17;10.00;;;6.70;;
46318;SDS011;32042;50.916;2.926;2024-02-21T09:51:34;12.07;;;8.07;;
46318;SDS011;32042;50.916;2.926;2024-02-21T09:54:01;10.50;;;8.40;;
46318;SDS011;32042;50.916;2.926;2024-02-21T09:56:28;16.50;;;8.03;;
46318;SDS011;32042;50.916;2.926;2024-02-21T09:58:54;9.90;;;7.73;;
46318;SDS011;32042;50.916;2.926;2024-02-21T10:01:20;9.80;;;7.97;;
46318;SDS011;32042;50.916;2.926;2024-02-21T10:03:45;9.97;;;6.90;;
46318;SDS011;32042;50.916;2.926;2024-02-21T10:06:12;10.80;;;6.93;;
46318;SDS011;32042;50.916;2.926;2024-02-21T10:08:39;11.10;;;6.23;;
46318;SDS011;32042;50.916;2.926;2024-02-21T10:11:04;7.77;;;6.17;;
46318;SDS011;32042;50.916;2.926;2024-02-21T10:13:30;7.50;;;6.30;;
46318;SDS011;32042;50.916;2.926;2024-02-21T10:16:06;8.37;;;6.73;;
46318;SDS011;32042;50.916;2.926;2024-02-21T10:18:33;7.90;;;7.10;;
46318;SDS011;32042;50.916;2.926;2024-02-21T10:21:06;8.07;;;6.53;;
46318;SDS011;32042;50.916;2.926;2024-02-21T10:23:42;9.93;;;6.93;;
46318;SDS011;32042;50.916;2.926;2024-02-21T10:26:08;7.70;;;6.03;;
46318;SDS011;32042;50.916;2.926;2024-02-21T10:28:34;14.57;;;6.30;;
46318;SDS011;32042;50.916;2.926;2024-02-21T10:31:01;8.57;;;6.20;;
46318;SDS011;32042;50.916;2.926;2024-02-21T10:33:27;7.47;;;5.83;;
46318;SDS011;32042;50.916;2.926;2024-02-21T10:35:53;8.23;;;5.83;;
46318;SDS011;32042;50.916;2.926;2024-02-21T10:38:19;9.30;;;7.50;;
46318;SDS011;32042;50.916;2.926;2024-02-21T10:40:44;10.33;;;6.50;;
46318;SDS011;32042;50.916;2.926;2024-02-21T10:43:12;9.20;;;5.93;;
46318;SDS011;32042;50.916;2.926;2024-02-21T10:45:43;10.40;;;6.40;;
46318;SDS011;32042;50.916;2.926;2024-02-21T10:48:13;7.60;;;6.33;;
46318;SDS011;32042;50.916;2.926;2024-02-21T10:56:16;8.63;;;6.50;;
46318;SDS011;32042;50.916;2.926;2024-02-21T10:58:45;7.33;;;6.70;;
46318;SDS011;32042;50.916;2.926;2024-02-21T11:01:12;7.00;;;6.20;;
46318;SDS011;32042;50.916;2.926;2024-02-21T11:03:40;12.43;;;7.13;;
46318;SDS011;32042;50.916;2.926;2024-02-21T11:06:09;8.53;;;7.17;;
46318;SDS011;32042;50.916;2.926;2024-02-21T11:08:36;9.53;;;6.97;;
46318;SDS011;32042;50.916;2.926;2024-02-21T11:11:02;10.57;;;7.53;;
46318;SDS011;32042;50.916;2.926;2024-02-21T11:13:36;9.53;;;6.97;;
46318;SDS011;32042;50.916;2.926;2024-02-21T11:16:09;7.80;;;6.97;;
46318;SDS011;32042;50.916;2.926;2024-02-21T11:18:38;9.77;;;7.33;;
46318;SDS011;32042;50.916;2.926;2024-02-21T11:21:04;8.40;;;7.53;;
46318;SDS011;32042;50.916;2.926;2024-02-21T11:23:30;8.40;;;7.53;;
46318;SDS011;32042;50.916;2.926;2024-02-21T11:28:32;8.13;;;6.97;;
46318;SDS011;32042;50.916;2.926;2024-02-21T11:31:06;10.13;;;7.47;;
46318;SDS011;32042;50.916;2.926;2024-02-21T11:33:34;23.80;;;11.40;;
46318;SDS011;32042;50.916;2.926;2024-02-21T11:36:00;14.50;;;8.80;;
46318;SDS011;32042;50.916;2.926;2024-02-21T11:38:26;16.80;;;10.10;;
46318;SDS011;32042;50.916;2.926;2024-02-21T11:40:52;20.93;;;12.03;;
46318;SDS011;32042;50.916;2.926;2024-02-21T11:43:17;8.03;;;6.37;;
46318;SDS011;32042;50.916;2.926;2024-02-21T11:45:43;7.57;;;6.07;;
46318;SDS011;32042;50.916;2.926;2024-02-21T11:48:09;7.73;;;5.20;;
46318;SDS011;32042;50.916;2.926;2024-02-21T11:50:35;7.20;;;6.07;;
46318;SDS011;32042;50.916;2.926;2024-02-21T11:53:05;10.97;;;5.90;;
46318;SDS011;32042;50.916;2.926;2024-02-21T11:55:30;8.67;;;6.30;;
46318;SDS011;32042;50.916;2.926;2024-02-21T11:57:56;7.27;;;5.23;;
46318;SDS011;32042;50.916;2.926;2024-02-21T12:00:22;5.90;;;5.23;;
46318;SDS011;32042;50.916;2.926;2024-02-21T12:02:51;6.63;;;4.80;;
46318;SDS011;32042;50.916;2.926;2024-02-21T12:05:20;6.63;;;4.70;;
46318;SDS011;32042;50.916;2.926;2024-02-21T12:07:47;6.23;;;5.40;;
46318;SDS011;32042;50.916;2.926;2024-02-21T12:10:13;5.63;;;4.37;;
46318;SDS011;32042;50.916;2.926;2024-02-21T12:12:39;8.83;;;4.83;;
46318;SDS011;32042;50.916;2.926;2024-02-21T12:15:05;6.87;;;4.20;;
46318;SDS011;32042;50.916;2.926;2024-02-21T12:17:33;7.67;;;4.13;;
46318;SDS011;32042;50.916;2.926;2024-02-21T12:20:04;5.77;;;4.20;;
46318;SDS011;32042;50.916;2.926;2024-02-21T12:22:35;5.03;;;3.93;;
46318;SDS011;32042;50.916;2.926;2024-02-21T12:25:04;4.67;;;4.13;;
46318;SDS011;32042;50.916;2.926;2024-02-21T12:27:40;6.23;;;4.80;;
46318;SDS011;32042;50.916;2.926;2024-02-21T12:30:06;5.37;;;3.83;;
46318;SDS011;32042;50.916;2.926;2024-02-21T12:32:35;5.33;;;4.83;;
46318;SDS011;32042;50.916;2.926;2024-02-21T12:35:01;4.70;;;4.30;;
46318;SDS011;32042;50.916;2.926;2024-02-21T12:37:28;4.23;;;3.83;;
46318;SDS011;32042;50.916;2.926;2024-02-21T12:39:54;6.07;;;3.87;;
46318;SDS011;32042;50.916;2.926;2024-02-21T12:42:19;5.50;;;3.40;;
46318;SDS011;32042;50.916;2.926;2024-02-21T12:44:45;4.90;;;3.60;;
46318;SDS011;32042;50.916;2.926;2024-02-21T12:47:11;4.50;;;3.73;;
46318;SDS011;32042;50.916;2.926;2024-02-21T12:49:37;3.40;;;3.10;;
46318;SDS011;32042;50.916;2.926;2024-02-21T12:52:03;6.23;;;4.13;;
46318;SDS011;32042;50.916;2.926;2024-02-21T12:54:29;3.50;;;3.20;;
46318;SDS011;32042;50.916;2.926;2024-02-21T12:56:56;5.37;;;3.63;;
46318;SDS011;32042;50.916;2.926;2024-02-21T12:59:22;12.00;;;6.37;;
46318;SDS011;32042;50.916;2.926;2024-02-21T13:01:48;10.00;;;6.83;;
46318;SDS011;32042;50.916;2.926;2024-02-21T13:04:14;9.17;;;6.73;;
46318;SDS011;32042;50.916;2.926;2024-02-21T13:06:40;11.07;;;7.70;;
46318;SDS011;32042;50.916;2.926;2024-02-21T13:09:05;19.67;;;10.50;;
46318;SDS011;32042;50.916;2.926;2024-02-21T13:11:34;5.33;;;4.30;;
46318;SDS011;32042;50.916;2.926;2024-02-21T13:14:00;4.73;;;3.57;;
46318;SDS011;32042;50.916;2.926;2024-02-21T13:16:25;5.73;;;3.40;;
46318;SDS011;32042;50.916;2.926;2024-02-21T13:18:52;4.67;;;3.53;;
46318;SDS011;32042;50.916;2.926;2024-02-21T13:21:17;5.10;;;3.30;;
46318;SDS011;32042;50.916;2.926;2024-02-21T13:23:43;4.00;;;3.37;;
46318;SDS011;32042;50.916;2.926;2024-02-21T13:26:09;4.07;;;3.13;;
46318;SDS011;32042;50.916;2.926;2024-02-21T13:28:36;8.23;;;3.50;;
46318;SDS011;32042;50.916;2.926;2024-02-21T13:31:01;5.30;;;2.87;;
46318;SDS011;32042;50.916;2.926;2024-02-21T13:33:30;4.77;;;3.30;;
46318;SDS011;32042;50.916;2.926;2024-02-21T13:35:55;4.77;;;3.43;;
46318;SDS011;32042;50.916;2.926;2024-02-21T13:38:21;3.67;;;3.10;;
46318;SDS011;32042;50.916;2.926;2024-02-21T13:40:47;4.73;;;3.83;;
46318;SDS011;32042;50.916;2.926;2024-02-21T13:43:12;5.00;;;3.10;;
46318;SDS011;32042;50.916;2.926;2024-02-21T13:45:38;4.77;;;3.73;;
46318;SDS011;32042;50.916;2.926;2024-02-21T13:48:06;4.07;;;3.73;;
46318;SDS011;32042;50.916;2.926;2024-02-21T13:50:35;7.17;;;6.30;;
46318;SDS011;32042;50.916;2.926;2024-02-21T13:53:07;8.77;;;6.40;;
46318;SDS011;32042;50.916;2.926;2024-02-21T13:55:34;5.53;;;4.87;;
46318;SDS011;32042;50.916;2.926;2024-02-21T13:58:00;5.07;;;4.23;;
46318;SDS011;32042;50.916;2.926;2024-02-21T14:00:26;4.90;;;4.27;;
46318;SDS011;32042;50.916;2.926;2024-02-21T14:02:52;6.23;;;4.00;;
46318;SDS011;32042;50.916;2.926;2024-02-21T14:05:20;5.57;;;4.23;;
46318;SDS011;32042;50.916;2.926;2024-02-21T14:07:46;5.47;;;4.40;;
46318;SDS011;32042;50.916;2.926;2024-02-21T14:10:12;5.00;;;4.53;;
46318;SDS011;32042;50.916;2.926;2024-02-21T14:12:38;8.07;;;5.47;;
46318;SDS011;32042;50.916;2.926;2024-02-21T14:15:05;7.70;;;5.33;;
46318;SDS011;32042;50.916;2.926;2024-02-21T14:17:31;9.00;;;4.90;;
46318;SDS011;32042;50.916;2.926;2024-02-21T14:19:56;8.33;;;6.03;;
46318;SDS011;32042;50.916;2.926;2024-02-21T14:22:22;9.00;;;6.80;;
46318;SDS011;32042;50.916;2.926;2024-02-21T14:24:48;8.97;;;5.00;;
46318;SDS011;32042;50.916;2.926;2024-02-21T14:27:13;7.53;;;4.10;;
46318;SDS011;32042;50.916;2.926;2024-02-21T14:29:39;6.90;;;4.73;;
46318;SDS011;32042;50.916;2.926;2024-02-21T14:32:05;5.90;;;4.30;;
46318;SDS011;32042;50.916;2.926;2024-02-21T14:34:32;6.07;;;4.27;;
46318;SDS011;32042;50.916;2.926;2024-02-21T14:36:57;7.20;;;4.23;;
46318;SDS011;32042;50.916;2.926;2024-02-21T14:39:23;7.13;;;5.00;;
46318;SDS011;32042;50.916;2.926;2024-02-21T14:41:49;7.07;;;4.13;;
46318;SDS011;32042;50.916;2.926;2024-02-21T14:44:15;9.50;;;4.77;;
46318;SDS011;32042;50.916;2.926;2024-02-21T14:46:41;7.57;;;4.30;;
46318;SDS011;32042;50.916;2.926;2024-02-21T14:49:07;9.40;;;4.83;;